sensor_id;sensor_type;location;lat;lon;timestamp;P1;durP1;ratioP1;P2;durP2;ratioP2
54557;SDS011;40452;50.080;20.040;2023-03-21T04:03:53;12.27;;;8.05;;
54557;SDS011;40452;50.080;20.040;2023-03-21T04:06:19;12.15;;;7.78;;
54557;SDS011;40452;50.080;20.040;2023-03-21T04:08:46;13.27;;;7.75;;
54557;SDS011;40452;50.080;20.040;2023-03-21T04:11:12;8.25;;;5.25;;
54557;SDS011;40452;50.080;20.040;2023-03-21T04:13:42;8.95;;;5.88;;
54557;SDS011;40452;50.080;20.040;2023-03-21T04:16:08;7.95;;;5.30;;
54557;SDS011;40452;50.080;20.040;2023-03-21T04:18:35;8.85;;;4.75;;
54557;SDS011;40452;50.080;20.040;2023-03-21T04:21:05;6.95;;;4.50;;
54557;SDS011;40452;50.080;20.040;2023-03-21T04:23:35;7.70;;;3.97;;
54557;SDS011;40452;50.080;20.040;2023-03-21T04:26:01;21.85;;;4.38;;
54557;SDS011;40452;50.080;20.040;2023-03-21T04:28:27;6.47;;;3.60;;
54557;SDS011;40452;50.080;20.040;2023-03-21T04:30:53;5.43;;;3.55;;
54557;SDS011;40452;50.080;20.040;2023-03-21T04:33:21;6.75;;;3.67;;
54557;SDS011;40452;50.080;20.040;2023-03-21T04:35:49;8.30;;;4.50;;
54557;SDS011;40452;50.080;20.040;2023-03-21T04:38:22;8.18;;;4.72;;
54557;SDS011;40452;50.080;20.040;2023-03-21T04:40:54;7.25;;;4.88;;
54557;SDS011;40452;50.080;20.040;2023-03-21T04:43:21;8.52;;;5.18;;
54557;SDS011;40452;50.080;20.040;2023-03-21T04:45:47;9.70;;;5.47;;
54557;SDS011;40452;50.080;20.040;2023-03-21T04:48:13;7.70;;;5.57;;
54557;SDS011;40452;50.080;20.040;2023-03-21T04:50:39;9.07;;;5.70;;
54557;SDS011;40452;50.080;20.040;2023-03-21T04:53:05;9.73;;;5.90;;
54557;SDS011;40452;50.080;20.040;2023-03-21T04:55:30;9.35;;;5.88;;
54557;SDS011;40452;50.080;20.040;2023-03-21T04:57:57;9.95;;;6.05;;
54557;SDS011;40452;50.080;20.040;2023-03-21T05:00:22;14.30;;;6.47;;
54557;SDS011;40452;50.080;20.040;2023-03-21T05:02:49;14.20;;;7.07;;
54557;SDS011;40452;50.080;20.040;2023-03-21T05:05:15;12.70;;;6.80;;
54557;SDS011;40452;50.080;20.040;2023-03-21T05:07:43;9.88;;;6.57;;
54557;SDS011;40452;50.080;20.040;2023-03-21T05:10:10;11.75;;;6.72;;
54557;SDS011;40452;50.080;20.040;2023-03-21T05:12:39;10.63;;;6.60;;
54557;SDS011;40452;50.080;20.040;2023-03-21T05:15:05;10.82;;;7.15;;
54557;SDS011;40452;50.080;20.040;2023-03-21T05:17:32;12.48;;;6.93;;
54557;SDS011;40452;50.080;20.040;2023-03-21T05:19:57;10.80;;;6.70;;
54557;SDS011;40452;50.080;20.040;2023-03-21T05:22:23;15.55;;;6.53;;
54557;SDS011;40452;50.080;20.040;2023-03-21T05:24:50;11.07;;;7.10;;
54557;SDS011;40452;50.080;20.040;2023-03-21T05:27:19;11.13;;;7.15;;
54557;SDS011;40452;50.080;20.040;2023-03-21T05:30:02;12.18;;;7.47;;
54557;SDS011;40452;50.080;20.040;2023-03-21T05:32:30;11.52;;;7.78;;
54557;SDS011;40452;50.080;20.040;2023-03-21T05:34:56;13.35;;;7.43;;
54557;SDS011;40452;50.080;20.040;2023-03-21T05:37:22;12.13;;;7.75;;
54557;SDS011;40452;50.080;20.040;2023-03-21T05:39:48;12.45;;;7.78;;
54557;SDS011;40452;50.080;20.040;2023-03-21T05:42:13;13.07;;;8.32;;
54557;SDS011;40452;50.080;20.040;2023-03-21T05:44:40;11.48;;;7.80;;
54557;SDS011;40452;50.080;20.040;2023-03-21T05:47:05;11.40;;;7.43;;
54557;SDS011;40452;50.080;20.040;2023-03-21T05:49:31;13.00;;;7.75;;
54557;SDS011;40452;50.080;20.040;2023-03-21T05:51:57;12.77;;;7.93;;
54557;SDS011;40452;50.080;20.040;2023-03-21T05:54:22;12.30;;;8.45;;
54557;SDS011;40452;50.080;20.040;2023-03-21T05:56:48;13.75;;;8.05;;
54557;SDS011;40452;50.080;20.040;2023-03-21T05:59:13;13.50;;;8.00;;
54557;SDS011;40452;50.080;20.040;2023-03-21T06:01:40;14.60;;;8.35;;
54557;SDS011;40452;50.080;20.040;2023-03-21T06:04:06;12.75;;;7.88;;
54557;SDS011;40452;50.080;20.040;2023-03-21T06:06:32;12.27;;;8.18;;
54557;SDS011;40452;50.080;20.040;2023-03-21T06:08:57;14.68;;;8.38;;
54557;SDS011;40452;50.080;20.040;2023-03-21T06:11:43;15.57;;;8.35;;
54557;SDS011;40452;50.080;20.040;2023-03-21T06:14:11;12.73;;;8.52;;
54557;SDS011;40452;50.080;20.040;2023-03-21T06:16:39;14.43;;;8.85;;
54557;SDS011;40452;50.080;20.040;2023-03-21T06:19:05;17.35;;;9.07;;
54557;SDS011;40452;50.080;20.040;2023-03-21T06:21:30;14.15;;;9.05;;
54557;SDS011;40452;50.080;20.040;2023-03-21T06:23:56;13.73;;;9.13;;
54557;SDS011;40452;50.080;20.040;2023-03-21T06:26:21;16.70;;;8.77;;
54557;SDS011;40452;50.080;20.040;2023-03-21T06:28:50;32.70;;;18.63;;
54557;SDS011;40452;50.080;20.040;2023-03-21T06:31:17;30.80;;;20.63;;
54557;SDS011;40452;50.080;20.040;2023-03-21T06:33:43;30.73;;;20.92;;
54557;SDS011;40452;50.080;20.040;2023-03-21T06:36:08;31.30;;;20.77;;
54557;SDS011;40452;50.080;20.040;2023-03-21T06:38:34;33.60;;;21.88;;
54557;SDS011;40452;50.080;20.040;2023-03-21T06:41:02;31.33;;;20.25;;
54557;SDS011;40452;50.080;20.040;2023-03-21T06:43:29;33.10;;;20.10;;
54557;SDS011;40452;50.080;20.040;2023-03-21T06:45:56;29.98;;;19.85;;
54557;SDS011;40452;50.080;20.040;2023-03-21T06:48:22;26.10;;;18.58;;
54557;SDS011;40452;50.080;20.040;2023-03-21T06:50:48;26.00;;;17.70;;
54557;SDS011;40452;50.080;20.040;2023-03-21T06:53:14;28.38;;;17.10;;
54557;SDS011;40452;50.080;20.040;2023-03-21T06:55:40;33.55;;;18.02;;
54557;SDS011;40452;50.080;20.040;2023-03-21T06:58:05;26.83;;;16.45;;
54557;SDS011;40452;50.080;20.040;2023-03-21T07:00:31;24.77;;;16.13;;
54557;SDS011;40452;50.080;20.040;2023-03-21T07:02:56;24.95;;;15.70;;
54557;SDS011;40452;50.080;20.040;2023-03-21T07:05:22;27.00;;;15.10;;
54557;SDS011;40452;50.080;20.040;2023-03-21T07:07:48;23.35;;;15.20;;
54557;SDS011;40452;50.080;20.040;2023-03-21T07:10:13;23.13;;;13.30;;
54557;SDS011;40452;50.080;20.040;2023-03-21T07:12:39;27.80;;;14.20;;
54557;SDS011;40452;50.080;20.040;2023-03-21T07:15:07;23.02;;;14.18;;
54557;SDS011;40452;50.080;20.040;2023-03-21T07:17:33;22.13;;;13.77;;
54557;SDS011;40452;50.080;20.040;2023-03-21T07:19:58;20.98;;;12.85;;
54557;SDS011;40452;50.080;20.040;2023-03-21T07:22:24;18.10;;;11.77;;
54557;SDS011;40452;50.080;20.040;2023-03-21T07:24:50;18.45;;;11.73;;
54557;SDS011;40452;50.080;20.040;2023-03-21T07:27:16;14.38;;;9.73;;
54557;SDS011;40452;50.080;20.040;2023-03-21T07:29:43;12.13;;;8.25;;
54557;SDS011;40452;50.080;20.040;2023-03-21T07:32:11;14.80;;;8.18;;
54557;SDS011;40452;50.080;20.040;2023-03-21T07:34:37;13.88;;;8.55;;
54557;SDS011;40452;50.080;20.040;2023-03-21T07:37:03;12.88;;;7.88;;
54557;SDS011;40452;50.080;20.040;2023-03-21T07:39:30;12.50;;;7.65;;
54557;SDS011;40452;50.080;20.040;2023-03-21T07:41:57;12.55;;;7.88;;
54557;SDS011;40452;50.080;20.040;2023-03-21T07:44:22;12.95;;;7.30;;
54557;SDS011;40452;50.080;20.040;2023-03-21T07:46:49;14.00;;;7.93;;
54557;SDS011;40452;50.080;20.040;2023-03-21T07:49:14;12.32;;;7.75;;
54557;SDS011;40452;50.080;20.040;2023-03-21T07:51:40;11.35;;;6.82;;
54557;SDS011;40452;50.080;20.040;2023-03-21T07:54:06;10.80;;;6.68;;
54557;SDS011;40452;50.080;20.040;2023-03-21T07:56:32;11.10;;;7.38;;
54557;SDS011;40452;50.080;20.040;2023-03-21T07:58:57;11.63;;;7.60;;
54557;SDS011;40452;50.080;20.040;2023-03-21T08:01:23;11.52;;;6.80;;
54557;SDS011;40452;50.080;20.040;2023-03-21T08:03:49;11.48;;;7.22;;
54557;SDS011;40452;50.080;20.040;2023-03-21T08:06:17;11.80;;;7.32;;
54557;SDS011;40452;50.080;20.040;2023-03-21T08:08:44;11.18;;;7.10;;
54557;SDS011;40452;50.080;20.040;2023-03-21T08:11:10;11.70;;;7.28;;
54557;SDS011;40452;50.080;20.040;2023-03-21T08:13:36;13.98;;;7.07;;
54557;SDS011;40452;50.080;20.040;2023-03-21T08:16:01;13.32;;;7.20;;
54557;SDS011;40452;50.080;20.040;2023-03-21T08:18:27;17.52;;;6.53;;
54557;SDS011;40452;50.080;20.040;2023-03-21T08:20:53;12.23;;;6.90;;
54557;SDS011;40452;50.080;20.040;2023-03-21T15:58:51;42.63;;;28.05;;
54557;SDS011;40452;50.080;20.040;2023-03-21T16:01:17;40.75;;;26.58;;
54557;SDS011;40452;50.080;20.040;2023-03-21T16:03:47;40.20;;;26.30;;
54557;SDS011;40452;50.080;20.040;2023-03-21T18:44:17;25.65;;;16.92;;
54557;SDS011;40452;50.080;20.040;2023-03-21T18:46:42;26.52;;;15.98;;
54557;SDS011;40452;50.080;20.040;2023-03-21T18:49:11;23.85;;;16.88;;
54557;SDS011;40452;50.080;20.040;2023-03-21T18:51:38;23.60;;;16.50;;
54557;SDS011;40452;50.080;20.040;2023-03-21T18:54:04;23.50;;;15.60;;
54557;SDS011;40452;50.080;20.040;2023-03-21T18:56:29;24.95;;;16.73;;
54557;SDS011;40452;50.080;20.040;2023-03-21T18:59:01;24.83;;;16.73;;
54557;SDS011;40452;50.080;20.040;2023-03-21T19:01:27;24.85;;;16.17;;
54557;SDS011;40452;50.080;20.040;2023-03-21T19:03:52;23.77;;;15.18;;
54557;SDS011;40452;50.080;20.040;2023-03-21T19:08:52;34.28;;;19.88;;
54557;SDS011;40452;50.080;20.040;2023-03-21T19:11:18;24.75;;;15.85;;
54557;SDS011;40452;50.080;20.040;2023-03-21T19:13:48;24.55;;;16.48;;
54557;SDS011;40452;50.080;20.040;2023-03-21T19:16:17;24.40;;;16.52;;
54557;SDS011;40452;50.080;20.040;2023-03-21T19:18:43;27.73;;;17.02;;
54557;SDS011;40452;50.080;20.040;2023-03-21T19:21:09;26.55;;;17.25;;
54557;SDS011;40452;50.080;20.040;2023-03-21T19:23:34;27.85;;;16.67;;
54557;SDS011;40452;50.080;20.040;2023-03-21T19:26:01;24.05;;;16.88;;
54557;SDS011;40452;50.080;20.040;2023-03-21T19:28:36;23.23;;;16.08;;
54557;SDS011;40452;50.080;20.040;2023-03-21T19:31:11;26.77;;;16.75;;
54557;SDS011;40452;50.080;20.040;2023-03-21T19:33:37;23.70;;;16.27;;
54557;SDS011;40452;50.080;20.040;2023-03-21T19:36:03;24.35;;;17.42;;
54557;SDS011;40452;50.080;20.040;2023-03-21T19:38:29;29.33;;;16.92;;
54557;SDS011;40452;50.080;20.040;2023-03-21T19:40:58;24.55;;;17.15;;
54557;SDS011;40452;50.080;20.040;2023-03-21T19:43:24;24.27;;;16.15;;
54557;SDS011;40452;50.080;20.040;2023-03-21T19:45:50;28.35;;;18.17;;
54557;SDS011;40452;50.080;20.040;2023-03-21T19:48:16;25.27;;;17.77;;
54557;SDS011;40452;50.080;20.040;2023-03-21T19:50:42;25.42;;;17.10;;
54557;SDS011;40452;50.080;20.040;2023-03-21T19:53:10;27.30;;;17.52;;
54557;SDS011;40452;50.080;20.040;2023-03-21T19:55:36;26.40;;;17.95;;
54557;SDS011;40452;50.080;20.040;2023-03-21T19:58:01;26.95;;;17.60;;
54557;SDS011;40452;50.080;20.040;2023-03-21T20:00:31;24.10;;;17.45;;
54557;SDS011;40452;50.080;20.040;2023-03-21T20:03:00;24.30;;;17.70;;
54557;SDS011;40452;50.080;20.040;2023-03-21T20:05:26;27.20;;;17.48;;
54557;SDS011;40452;50.080;20.040;2023-03-21T20:07:52;27.25;;;17.10;;
54557;SDS011;40452;50.080;20.040;2023-03-21T20:10:24;24.92;;;17.40;;
54557;SDS011;40452;50.080;20.040;2023-03-21T20:12:51;25.48;;;16.60;;
